South Weymouth, Massachusetts
Current Conditions -  °F | °C
As of 4:16 PM on Monday 22 Dec 2014 (Local Time) from KOWD Reporting Station
Light Rain Light Rain  
Wind Chill: 42°   Ceiling: 1800
Heat Index: 42°   Visibility: 10mi
Dew Point: 39°   Wind: 3mph
Humidity: 89%   Direction: 40°NE
Pressure: 30.32"   Gusts: NA
Location:  42.1666°N, 70.9521°W
Report Text: KOWD 222116Z 04003KT 10SM -RA FEW012 BKN018 OVC024 06/04 A3032 RMK AO2 P0000 T00560039
Loading
Personal Weather Stations






























Interactive Weather Map New forecast layout! Learn more

10-Day Weather Forecast

Advertisements
Track Severe Weather on mobile